Time;durP1;ratioP1;P1;durP2;ratioP2;P2;SDS_P1;SDS_P2;PMS_P1;PMS_P2;Temp;Humidity;BMP_temperature;BMP_pressure;BME280_temperature;BME280_humidity;BME280_pressure;Samples;Min_cycle;Max_cycle;Signal;HPM_P1;HPM_P2
2022/05/23 00:01:44;;;;;;;8.32;3.70;;;14.40;99.90;;;;;;5051508;28;20090;-49
2022/05/23 00:04:10;;;;;;;4.82;3.65;;;14.50;99.90;;;;;;5051541;28;20024;-50
2022/05/23 00:06:36;;;;;;;8.60;4.55;;;14.70;99.90;;;;;;5051614;28;20036;-51
2022/05/23 00:09:02;;;;;;;6.53;3.78;;;14.80;99.90;;;;;;5051516;28;20055;-49
2022/05/23 00:11:28;;;;;;;11.27;3.53;;;14.90;99.90;;;;;;5050202;28;20044;-48
2022/05/23 00:13:54;;;;;;;4.85;3.63;;;14.90;99.90;;;;;;5051509;28;20392;-49
2022/05/23 00:16:26;;;;;;;7.57;4.00;;;15.00;99.90;;;;;;5051367;28;20029;-51
2022/05/23 00:18:52;;;;;;;10.23;3.25;;;15.00;99.90;;;;;;5050402;28;20021;-50
2022/05/23 00:21:19;;;;;;;6.28;3.67;;;15.00;99.90;;;;;;5050720;28;20086;-52
2022/05/23 00:23:45;;;;;;;7.88;3.75;;;15.10;99.90;;;;;;5051175;28;20041;-52
2022/05/23 00:26:17;;;;;;;10.30;3.67;;;15.20;99.90;;;;;;5051381;28;20052;-48
2022/05/23 00:28:42;;;;;;;6.78;3.63;;;15.20;99.90;;;;;;5049925;28;20032;-52
2022/05/23 00:31:10;;;;;;;7.97;3.38;;;15.20;99.90;;;;;;5050097;28;20025;-51
2022/05/23 00:36:22;;;;;;;11.40;4.90;;;15.20;99.90;;;;;;5051591;28;20044;-52
2022/05/23 00:38:48;;;;;;;8.63;3.47;;;15.10;99.90;;;;;;5051300;28;20067;-50
2022/05/23 00:44:30;;;;;;;9.40;3.90;;;15.10;99.90;;;;;;5051187;28;20094;-51
2022/05/23 00:46:57;;;;;;;10.18;4.32;;;15.10;99.90;;;;;;5051018;28;20035;-47
2022/05/23 00:49:31;;;;;;;9.18;3.50;;;15.10;99.90;;;;;;5053053;28;20471;-49
2022/05/23 00:52:00;;;;;;;9.20;4.18;;;15.10;99.90;;;;;;5054904;28;20107;-51
2022/05/23 00:54:33;;;;;;;7.43;3.90;;;15.10;99.90;;;;;;5055203;28;20435;-50
2022/05/23 00:56:59;;;;;;;9.57;4.05;;;15.10;99.90;;;;;;5054994;28;20029;-52
2022/05/23 00:59:31;;;;;;;11.27;4.50;;;15.10;99.90;;;;;;5054967;28;20554;-46
2022/05/23 01:01:57;;;;;;;4.55;3.97;;;15.10;99.90;;;;;;5054889;28;20112;-48
2022/05/23 01:04:23;;;;;;;8.40;4.28;;;15.10;99.90;;;;;;5054696;28;20112;-49
2022/05/23 01:06:49;;;;;;;6.20;4.30;;;15.00;99.90;;;;;;5054653;28;20492;-50
2022/05/23 01:09:15;;;;;;;7.88;5.05;;;15.00;99.90;;;;;;5054834;28;20027;-49
2022/05/23 01:11:40;;;;;;;5.43;4.10;;;15.00;99.90;;;;;;5054530;28;20490;-52
2022/05/23 01:14:07;;;;;;;11.38;4.22;;;15.00;99.90;;;;;;5054754;28;20102;-52
2022/05/23 01:16:33;;;;;;;14.10;4.72;;;15.00;99.90;;;;;;5054763;28;20028;-50
2022/05/23 01:18:58;;;;;;;8.38;3.90;;;14.90;99.90;;;;;;5054378;28;20024;-50
2022/05/23 01:21:54;;;;;;;5.45;3.60;;;14.90;99.90;;;;;;5054574;28;20059;-47
2022/05/23 01:24:52;;;;;;;10.82;3.58;;;14.90;99.90;;;;;;5054458;28;20064;-49
2022/05/23 01:27:18;;;;;;;6.75;4.70;;;15.00;99.90;;;;;;5052187;28;20033;-50
2022/05/23 01:29:45;;;;;;;7.05;3.83;;;14.90;99.90;;;;;;5054415;28;20048;-47
2022/05/23 01:32:11;;;;;;;9.15;4.30;;;14.90;99.90;;;;;;5054312;28;20421;-51
2022/05/23 01:34:37;;;;;;;7.63;4.43;;;14.80;99.90;;;;;;5054274;28;20040;-48
2022/05/23 01:37:04;;;;;;;9.20;4.50;;;14.80;99.90;;;;;;5054226;28;20043;-49
2022/05/23 01:39:29;;;;;;;5.25;3.40;;;14.70;99.90;;;;;;5054171;28;20475;-48
2022/05/23 01:41:55;;;;;;;5.28;4.03;;;14.70;99.90;;;;;;5054081;28;20056;-48
2022/05/23 01:44:21;;;;;;;9.45;4.05;;;14.70;99.90;;;;;;5054135;28;20033;-48
2022/05/23 01:46:47;;;;;;;7.05;5.03;;;14.60;99.90;;;;;;5054090;28;20200;-49
2022/05/23 01:49:12;;;;;;;7.10;4.28;;;14.60;99.90;;;;;;5054027;28;20049;-48
2022/05/23 01:51:38;;;;;;;11.57;3.78;;;14.60;99.90;;;;;;5053840;28;20098;-52
2022/05/23 01:54:04;;;;;;;6.53;4.00;;;14.60;99.90;;;;;;5053999;28;20111;-51
2022/05/23 01:56:29;;;;;;;13.73;4.20;;;14.50;99.90;;;;;;5054078;28;20099;-48
2022/05/23 02:01:40;;;;;;;5.38;4.35;;;14.60;99.90;;;;;;5053622;28;20435;-52
2022/05/23 02:04:05;;;;;;;8.52;4.10;;;14.70;99.90;;;;;;5052299;28;20033;-49
2022/05/23 02:06:31;;;;;;;13.07;5.38;;;14.60;99.90;;;;;;5053828;28;20503;-52
2022/05/23 02:08:57;;;;;;;7.72;4.10;;;14.50;99.90;;;;;;5053392;28;20078;-49
2022/05/23 02:11:22;;;;;;;6.50;4.95;;;14.50;99.90;;;;;;5051602;28;20060;-51
2022/05/23 02:13:48;;;;;;;6.82;4.25;;;14.50;99.90;;;;;;5052667;28;20025;-51
2022/05/23 02:16:20;;;;;;;7.35;4.80;;;14.50;99.90;;;;;;5053491;28;20025;-52
2022/05/23 02:18:46;;;;;;;6.78;4.63;;;14.40;99.90;;;;;;5053500;28;20047;-48
2022/05/23 02:21:12;;;;;;;9.95;4.00;;;14.40;99.90;;;;;;5053539;28;20037;-49
2022/05/23 02:23:37;;;;;;;7.20;4.30;;;14.40;99.90;;;;;;5053310;28;20045;-52
2022/05/23 02:26:04;;;;;;;9.75;4.80;;;14.40;99.90;;;;;;5053318;28;20473;-52
2022/05/23 02:28:29;;;;;;;6.80;3.80;;;14.40;99.90;;;;;;5053288;28;20036;-51
2022/05/23 02:30:55;;;;;;;4.93;4.05;;;14.30;99.90;;;;;;5051674;28;20028;-52
2022/05/23 02:33:21;;;;;;;7.95;4.40;;;14.30;99.90;;;;;;5053157;28;20025;-50
2022/05/23 02:35:48;;;;;;;10.00;5.53;;;14.30;99.90;;;;;;5053215;28;20071;-49
2022/05/23 02:38:13;;;;;;;7.22;4.75;;;14.20;99.90;;;;;;5053177;28;20054;-50
2022/05/23 02:40:39;;;;;;;7.80;4.65;;;14.10;99.90;;;;;;5052962;28;20029;-49
2022/05/23 02:43:04;;;;;;;11.27;7.20;;;14.20;99.90;;;;;;5053092;28;20166;-48
2022/05/23 02:45:30;;;;;;;8.45;4.80;;;14.10;99.90;;;;;;5052960;28;20115;-47
2022/05/23 02:47:56;;;;;;;6.57;4.45;;;14.10;99.90;;;;;;5052776;28;20032;-51
2022/05/23 02:50:22;;;;;;;13.05;5.10;;;14.00;99.90;;;;;;5052810;28;20686;-51
2022/05/23 02:52:47;;;;;;;16.27;5.03;;;14.00;99.90;;;;;;5052758;28;20036;-51
2022/05/23 02:55:13;;;;;;;7.00;5.28;;;14.00;99.90;;;;;;5051593;28;20043;-49
2022/05/23 02:57:39;;;;;;;13.00;5.80;;;14.00;99.90;;;;;;5052745;28;20025;-52
2022/05/23 03:00:07;;;;;;;13.80;5.75;;;13.90;99.90;;;;;;5052454;28;20040;-51
2022/05/23 03:05:17;;;;;;;8.95;5.78;;;13.80;99.90;;;;;;5052644;28;20036;-49
2022/05/23 03:07:43;;;;;;;10.10;5.82;;;13.80;99.90;;;;;;5052604;28;20029;-49
2022/05/23 03:10:08;;;;;;;10.50;5.53;;;13.70;99.90;;;;;;5052479;28;20017;-52
2022/05/23 03:12:34;;;;;;;9.48;6.13;;;13.60;99.90;;;;;;5051855;28;20064;-48
2022/05/23 03:15:02;;;;;;;7.13;4.93;;;13.60;99.90;;;;;;5052278;28;20036;-53
2022/05/23 03:17:27;;;;;;;8.07;5.90;;;13.60;99.90;;;;;;5052459;28;20017;-50
2022/05/23 03:19:53;;;;;;;13.30;7.22;;;13.60;99.90;;;;;;5052263;28;20445;-51
2022/05/23 03:27:47;;;;;;;11.25;4.93;;;13.60;99.90;;;;;;5052033;28;20031;-48
2022/05/23 03:30:13;;;;;;;5.90;5.28;;;13.70;99.90;;;;;;5051975;28;20472;-49
2022/05/23 03:32:39;;;;;;;10.45;5.13;;;13.60;99.90;;;;;;5050844;28;20017;-52
2022/05/23 03:35:07;;;;;;;6.47;5.05;;;13.60;99.90;;;;;;5052071;28;20016;-50
2022/05/23 03:37:33;;;;;;;8.05;4.15;;;13.50;99.90;;;;;;5051991;28;20409;-51
2022/05/23 03:40:00;;;;;;;9.20;4.97;;;13.50;99.90;;;;;;5051852;28;20053;-50
2022/05/23 03:42:26;;;;;;;6.90;4.00;;;13.50;99.90;;;;;;5050500;28;20033;-51
2022/05/23 03:45:13;;;;;;;11.48;4.10;;;13.50;99.90;;;;;;5051813;28;20032;-49
2022/05/23 03:47:39;;;;;;;5.40;4.25;;;13.60;99.90;;;;;;5051846;28;20044;-52
2022/05/23 03:50:05;;;;;;;7.32;5.28;;;13.60;99.90;;;;;;5051799;28;20029;-53
2022/05/23 03:52:31;;;;;;;6.70;4.47;;;13.60;99.90;;;;;;5051831;28;20025;-48
2022/05/23 03:54:57;;;;;;;9.95;4.88;;;13.60;99.90;;;;;;5051756;28;20594;-50
2022/05/23 03:57:23;;;;;;;5.97;4.68;;;13.60;99.90;;;;;;5050275;28;20021;-47
2022/05/23 03:59:50;;;;;;;6.38;4.18;;;13.70;99.90;;;;;;5051664;28;20033;-52
2022/05/23 04:02:15;;;;;;;14.40;4.78;;;13.70;99.90;;;;;;5051035;28;20021;-54
2022/05/23 04:04:41;;;;;;;8.25;4.38;;;13.70;99.90;;;;;;5050687;28;20032;-50
2022/05/23 04:07:08;;;;;;;7.72;4.53;;;13.70;99.90;;;;;;5051526;28;20040;-50
2022/05/23 04:09:34;;;;;;;7.50;5.25;;;13.70;99.90;;;;;;5051739;28;20434;-52
2022/05/23 04:12:00;;;;;;;13.32;5.00;;;13.80;99.90;;;;;;5051365;28;20087;-52
2022/05/23 04:14:27;;;;;;;7.40;3.65;;;13.90;99.90;;;;;;5051441;28;20536;-51
2022/05/23 04:16:53;;;;;;;11.98;4.38;;;13.90;99.90;;;;;;5051407;28;20104;-53
2022/05/23 04:19:19;;;;;;;9.85;5.30;;;14.00;99.90;;;;;;5051401;28;20445;-49
2022/05/23 04:21:47;;;;;;;7.95;4.78;;;14.00;99.90;;;;;;5051475;28;20120;-47
2022/05/23 04:24:14;;;;;;;8.43;4.55;;;14.10;99.90;;;;;;5054587;28;20144;-52
2022/05/23 04:26:39;;;;;;;8.07;4.53;;;14.10;99.90;;;;;;5055276;28;20411;-48
2022/05/23 04:29:08;;;;;;;10.30;4.22;;;14.10;99.90;;;;;;5055563;28;20029;-52
2022/05/23 04:31:35;;;;;;;11.23;4.97;;;14.10;99.90;;;;;;5055427;28;20017;-53
2022/05/23 04:36:47;;;;;;;9.10;4.78;;;14.00;99.90;;;;;;5054318;28;20032;-51
2022/05/23 04:39:12;;;;;;;12.23;4.20;;;14.00;99.90;;;;;;5054042;28;20095;-51
2022/05/23 04:41:38;;;;;;;14.50;6.47;;;14.00;99.90;;;;;;5053969;28;20133;-50
2022/05/23 04:44:04;;;;;;;11.15;5.05;;;13.90;99.90;;;;;;5054634;28;20021;-52
2022/05/23 04:46:30;;;;;;;8.73;4.45;;;13.80;99.90;;;;;;5054954;28;20515;-47
2022/05/23 04:51:40;;;;;;;5.88;4.32;;;14.00;99.90;;;;;;5053990;28;20509;-48
2022/05/23 04:54:07;;;;;;;8.70;4.90;;;14.10;99.90;;;;;;5053839;28;20033;-49
2022/05/23 04:56:32;;;;;;;10.57;4.88;;;14.20;99.90;;;;;;5054800;28;20419;-52
2022/05/23 04:58:59;;;;;;;6.22;4.35;;;14.20;99.90;;;;;;5054802;28;20082;-52
2022/05/23 05:01:25;;;;;;;8.60;4.45;;;14.20;99.90;;;;;;5055055;28;20033;-55
2022/05/23 05:03:57;;;;;;;8.50;4.43;;;14.30;99.90;;;;;;5054867;28;20098;-52
2022/05/23 05:06:23;;;;;;;13.05;4.20;;;14.20;99.90;;;;;;5054905;28;20120;-51
2022/05/23 05:08:50;;;;;;;9.60;4.28;;;14.20;99.90;;;;;;5054516;28;20039;-49
2022/05/23 05:11:16;;;;;;;8.75;4.45;;;14.30;99.90;;;;;;5053935;28;20028;-53
2022/05/23 05:13:43;;;;;;;12.15;4.30;;;14.30;99.90;;;;;;5054501;28;20013;-49
2022/05/23 05:16:09;;;;;;;5.28;4.43;;;14.40;99.90;;;;;;5054576;28;20028;-53
2022/05/23 05:18:35;;;;;;;13.60;4.43;;;14.40;99.90;;;;;;5054521;28;20021;-52
2022/05/23 05:21:09;;;;;;;7.82;4.10;;;14.40;99.90;;;;;;5054397;28;20036;-52
2022/05/23 05:23:36;;;;;;;14.48;5.07;;;14.40;99.90;;;;;;5054400;28;20033;-51
2022/05/23 05:26:06;;;;;;;9.65;5.18;;;14.40;99.90;;;;;;5053917;28;20029;-48
2022/05/23 05:28:32;;;;;;;14.10;4.68;;;14.40;99.90;;;;;;5054435;28;20028;-50
2022/05/23 05:31:07;;;;;;;9.88;4.82;;;14.50;99.90;;;;;;5054295;28;20040;-54
2022/05/23 05:33:41;;;;;;;5.88;4.07;;;14.40;99.90;;;;;;5054211;28;20043;-48
2022/05/23 05:36:12;;;;;;;9.38;5.25;;;14.60;99.90;;;;;;5053711;28;20032;-53
2022/05/23 05:38:42;;;;;;;9.07;4.53;;;14.60;99.90;;;;;;5054090;28;20021;-53
2022/05/23 05:41:12;;;;;;;8.13;4.68;;;14.70;99.90;;;;;;5054209;28;20025;-49
2022/05/23 05:43:45;;;;;;;10.48;4.50;;;14.70;99.90;;;;;;5054133;28;20029;-53
2022/05/23 05:46:21;;;;;;;6.40;4.40;;;14.60;99.90;;;;;;5054025;28;20483;-49
2022/05/23 05:48:50;;;;;;;7.43;4.15;;;14.70;99.90;;;;;;5054036;28;20025;-51
2022/05/23 05:51:20;;;;;;;7.38;4.10;;;14.70;99.90;;;;;;5054093;28;20044;-50
2022/05/23 05:53:47;;;;;;;8.95;4.30;;;14.50;99.90;;;;;;5053264;28;20028;-50
2022/05/23 05:56:13;;;;;;;5.20;4.10;;;14.60;99.90;;;;;;5053187;28;20476;-53
2022/05/23 05:58:39;;;;;;;7.80;3.92;;;14.70;99.90;;;;;;5053396;28;20029;-51
2022/05/23 06:01:04;;;;;;;6.43;4.20;;;14.80;99.90;;;;;;5053756;28;20021;-49
2022/05/23 06:03:31;;;;;;;7.43;4.20;;;15.00;99.90;;;;;;5053751;28;20028;-50
2022/05/23 06:11:26;;;;;;;5.45;3.95;;;15.30;99.90;;;;;;5053531;28;20443;-52
2022/05/23 06:13:55;;;;;;;13.40;4.70;;;15.50;99.90;;;;;;5053385;28;20572;-52
2022/05/23 06:16:22;;;;;;;12.90;4.20;;;15.70;99.90;;;;;;5053386;28;20021;-51
2022/05/23 06:18:48;;;;;;;20.55;4.88;;;15.90;99.90;;;;;;5053524;28;20411;-46
2022/05/23 06:21:14;;;;;;;6.10;4.38;;;16.00;99.90;;;;;;5053546;28;20100;-51
2022/05/23 06:23:41;;;;;;;6.82;4.60;;;16.10;99.90;;;;;;5053249;28;20044;-51
2022/05/23 06:26:07;;;;;;;5.57;3.80;;;16.20;99.90;;;;;;5053365;28;20099;-49
2022/05/23 06:28:35;;;;;;;5.90;3.13;;;16.30;99.90;;;;;;5053267;28;20116;-50
2022/05/23 06:31:02;;;;;;;6.03;4.00;;;16.40;99.90;;;;;;5052995;28;20543;-50
2022/05/23 06:33:29;;;;;;;5.40;3.80;;;16.50;99.90;;;;;;5053129;28;20121;-50
2022/05/23 06:35:55;;;;;;;5.18;3.83;;;16.60;99.90;;;;;;5051626;28;20021;-51
2022/05/23 06:38:21;;;;;;;12.10;4.30;;;16.70;99.90;;;;;;5053019;28;20032;-54
2022/05/23 06:40:50;;;;;;;8.68;4.40;;;16.60;99.90;;;;;;5053133;28;20041;-49
2022/05/23 06:43:17;;;;;;;9.93;3.70;;;16.60;99.90;;;;;;5053059;28;20025;-48
2022/05/23 06:45:42;;;;;;;11.30;3.97;;;16.70;99.90;;;;;;5052648;28;20530;-50
2022/05/23 06:48:09;;;;;;;6.13;3.25;;;16.70;99.90;;;;;;5052212;28;20029;-50
2022/05/23 06:50:35;;;;;;;7.30;3.40;;;16.80;99.90;;;;;;5052772;28;20025;-49
2022/05/23 06:53:00;;;;;;;5.85;3.75;;;16.70;99.90;;;;;;5052766;28;20039;-53
2022/05/23 06:55:26;;;;;;;7.32;3.38;;;16.60;99.90;;;;;;5052784;28;20021;-53
2022/05/23 06:57:52;;;;;;;9.25;4.30;;;16.50;99.90;;;;;;5052697;28;20041;-51
2022/05/23 07:00:18;;;;;;;8.95;3.55;;;16.60;99.90;;;;;;5052580;28;20025;-49
2022/05/23 07:02:44;;;;;;;5.28;3.55;;;16.80;99.90;;;;;;5052506;28;20449;-51
2022/05/23 07:13:25;;;;;;;4.95;3.38;;;17.50;99.90;;;;;;5052665;28;20507;-47
2022/05/23 07:15:51;;;;;;;4.35;3.03;;;17.60;99.90;;;;;;5052342;28;20037;-52
2022/05/23 07:18:18;;;;;;;6.40;3.22;;;17.80;99.90;;;;;;5052367;28;20021;-51
2022/05/23 07:20:45;;;;;;;7.30;3.10;;;17.90;99.90;;;;;;5052048;28;20041;-49
2022/05/23 07:23:11;;;;;;;7.88;3.40;;;18.00;99.90;;;;;;5052139;28;20439;-51
2022/05/23 07:25:38;;;;;;;6.28;3.42;;;18.20;99.90;;;;;;5052210;28;20456;-52
2022/05/23 07:28:04;;;;;;;7.53;3.28;;;18.00;99.90;;;;;;5050714;28;20679;-49
2022/05/23 07:30:30;;;;;;;4.47;3.17;;;18.20;99.90;;;;;;5052129;28;20020;-51
2022/05/23 07:32:57;;;;;;;5.93;3.03;;;18.30;99.90;;;;;;5051940;28;20032;-51
2022/05/23 07:35:24;;;;;;;10.25;4.00;;;18.50;99.90;;;;;;5051980;28;20086;-50
2022/05/23 07:37:50;;;;;;;10.75;4.70;;;18.30;99.90;;;;;;5050706;28;20421;-50
2022/05/23 07:40:16;;;;;;;7.45;3.33;;;18.40;99.90;;;;;;5052088;28;20116;-50
2022/05/23 07:42:43;;;;;;;6.68;3.28;;;18.60;99.90;;;;;;5051969;28;20025;-50
2022/05/23 07:45:10;;;;;;;10.82;3.63;;;18.60;99.90;;;;;;5051314;28;20025;-53
2022/05/23 07:47:36;;;;;;;8.55;3.15;;;18.90;99.90;;;;;;5050925;28;20036;-52
2022/05/23 07:50:04;;;;;;;7.43;3.38;;;18.70;99.90;;;;;;5050913;28;20021;-53
2022/05/23 07:52:29;;;;;;;7.43;3.90;;;18.80;99.70;;;;;;5051635;28;20029;-52
2022/05/23 08:00:33;;;;;;;7.90;3.35;;;19.50;98.60;;;;;;5051717;28;20059;-51
2022/05/23 08:03:19;;;;;;;10.93;4.22;;;19.70;97.90;;;;;;5051494;28;20111;-49
2022/05/23 08:05:45;;;;;;;7.57;3.97;;;19.50;98.50;;;;;;5051440;28;20028;-52
2022/05/23 08:08:11;;;;;;;22.38;3.92;;;19.50;98.00;;;;;;5051567;28;20044;-53
2022/05/23 08:10:38;;;;;;;12.00;3.97;;;19.40;98.20;;;;;;5051534;28;20048;-54
2022/05/23 08:13:09;;;;;;;10.18;3.65;;;19.50;97.80;;;;;;5051592;28;20104;-54
2022/05/23 08:15:37;;;;;;;10.07;3.88;;;19.50;97.90;;;;;;5051524;28;20021;-47
2022/05/23 08:18:07;;;;;;;11.05;3.35;;;19.50;98.70;;;;;;5051271;28;20048;-52
2022/05/23 08:20:34;;;;;;;5.82;3.60;;;19.70;98.50;;;;;;5051504;28;20078;-52
2022/05/23 08:23:00;;;;;;;8.23;3.35;;;20.10;98.40;;;;;;5050950;28;20111;-55
2022/05/23 08:25:26;;;;;;;8.30;3.50;;;20.20;97.20;;;;;;5051449;28;20353;-54
2022/05/23 08:27:56;;;;;;;6.35;3.03;;;20.30;96.90;;;;;;5051315;28;20086;-53
2022/05/23 08:30:22;;;;;;;6.53;3.08;;;20.50;96.40;;;;;;5051269;28;20476;-53
2022/05/23 08:32:48;;;;;;;5.72;3.25;;;20.70;96.50;;;;;;5051254;28;20061;-52
2022/05/23 08:35:14;;;;;;;8.55;4.38;;;21.00;96.60;;;;;;5051269;28;20029;-51
2022/05/23 08:37:40;;;;;;;29.77;13.40;;;20.90;95.50;;;;;;5051131;28;20036;-53
2022/05/23 08:40:08;;;;;;;5.88;3.53;;;20.80;95.80;;;;;;5051212;28;20025;-50
2022/05/23 08:42:56;;;;;;;6.22;3.67;;;20.60;96.50;;;;;;5051217;28;20074;-51
2022/05/23 08:45:27;;;;;;;7.05;3.72;;;20.30;96.70;;;;;;5051286;28;20017;-52
2022/05/23 08:48:12;;;;;;;11.07;3.85;;;20.10;96.30;;;;;;5051133;28;20032;-51
2022/05/23 08:50:46;;;;;;;22.30;4.53;;;20.30;96.60;;;;;;5050998;28;20494;-52
2022/05/23 08:53:17;;;;;;;13.18;4.28;;;20.40;97.10;;;;;;5051013;28;20021;-53
2022/05/23 08:55:48;;;;;;;12.45;4.93;;;20.20;96.00;;;;;;5051134;28;20051;-48
2022/05/23 08:58:32;;;;;;;8.82;3.90;;;20.10;97.50;;;;;;5049797;28;20123;-50
2022/05/23 09:01:44;;;;;;;7.68;4.78;;;19.90;96.80;;;;;;5050745;28;20455;-54
2022/05/23 09:04:15;;;;;;;6.63;4.38;;;19.90;97.10;;;;;;5049735;28;20037;-53
2022/05/23 09:06:49;;;;;;;8.43;4.07;;;19.50;97.30;;;;;;5050930;28;20064;-53
2022/05/23 09:09:21;;;;;;;12.07;3.92;;;19.30;97.40;;;;;;5050916;28;20025;-53
2022/05/23 09:11:51;;;;;;;6.53;4.18;;;19.10;97.70;;;;;;5054680;28;20033;-49
2022/05/23 09:14:19;;;;;;;8.35;4.75;;;19.00;98.00;;;;;;5054652;28;20052;-51
2022/05/23 09:16:46;;;;;;;13.82;4.22;;;19.00;98.60;;;;;;5054670;28;20033;-50
2022/05/23 09:19:56;;;;;;;5.18;4.10;;;19.00;98.20;;;;;;5054453;28;20082;-51
2022/05/23 09:22:50;;;;;;;9.50;3.85;;;19.00;98.60;;;;;;5054337;28;20049;-52
2022/05/23 09:25:25;;;;;;;7.85;4.30;;;19.10;98.80;;;;;;5054500;28;20667;-55
2022/05/23 09:28:12;;;;;;;8.52;4.60;;;19.10;98.30;;;;;;5052709;28;20040;-55
2022/05/23 09:30:39;;;;;;;8.80;4.80;;;19.10;98.90;;;;;;5054376;28;20029;-53
2022/05/23 09:33:13;;;;;;;11.18;5.55;;;19.10;98.30;;;;;;5054297;28;20021;-54
2022/05/23 09:35:41;;;;;;;;;;;19.00;98.60;;;;;;5054850;28;20025;-54
2022/05/23 09:38:18;;;;;;;6.65;4.63;;;19.00;99.90;;;;;;5067675;28;19939;-50
2022/05/23 09:40:44;;;;;;;12.45;5.03;;;18.90;99.90;;;;;;5072689;28;20024;-51
2022/05/23 09:49:13;;;;;;;11.55;5.28;;;18.70;99.90;;;;;;5074080;28;20437;-54
2022/05/23 09:51:56;;;;;;;10.27;5.25;;;19.00;99.90;;;;;;5073505;28;20384;-52
2022/05/23 09:54:37;;;;;;;9.25;4.88;;;19.40;99.90;;;;;;5073961;28;20430;-52
2022/05/23 09:57:15;;;;;;;11.82;5.05;;;19.90;99.90;;;;;;5073862;28;20427;-52
2022/05/23 09:59:41;;;;;;;8.25;5.18;;;20.30;99.90;;;;;;5073624;28;20099;-54
2022/05/23 10:02:15;;;;;;;9.82;5.28;;;20.50;99.70;;;;;;5073809;28;20028;-54
2022/05/23 10:04:45;;;;;;;11.18;5.57;;;20.50;99.70;;;;;;5073678;28;20103;-54
2022/05/23 10:07:34;;;;;;;29.08;6.30;;;20.70;99.40;;;;;;5072253;28;20029;-52
2022/05/23 10:10:06;;;;;;;17.20;4.88;;;20.70;99.80;;;;;;5073513;28;20036;-50
2022/05/23 10:12:33;;;;;;;13.27;5.53;;;20.60;98.60;;;;;;5073414;28;20028;-50
2022/05/23 10:15:11;;;;;;;9.82;5.65;;;20.30;97.40;;;;;;5073278;28;20036;-53
2022/05/23 10:17:40;;;;;;;9.18;4.55;;;20.20;97.90;;;;;;5073456;28;20066;-55
2022/05/23 10:20:29;;;;;;;9.65;5.03;;;20.20;98.20;;;;;;5073600;28;20678;-49
2022/05/23 10:22:57;;;;;;;12.90;5.03;;;20.40;97.60;;;;;;5073244;28;20068;-53
2022/05/23 10:25:25;;;;;;;6.10;4.57;;;20.80;97.40;;;;;;5073474;28;20040;-52
2022/05/23 10:27:55;;;;;;;6.35;4.97;;;21.10;96.60;;;;;;5073029;28;20070;-53
2022/05/23 10:30:24;;;;;;;10.73;5.10;;;21.20;95.90;;;;;;5073068;28;20073;-52
2022/05/23 10:32:56;;;;;;;13.75;4.88;;;21.40;97.40;;;;;;5073284;28;20020;-55
2022/05/23 10:36:03;;;;;;;10.88;4.28;;;22.30;97.50;;;;;;5073231;28;20066;-54
2022/05/23 10:44:56;;;;;;;14.45;4.55;;;22.10;95.50;;;;;;5072968;28;20161;-49
2022/05/23 10:47:41;;;;;;;9.00;5.03;;;21.40;96.00;;;;;;5072826;28;20460;-54
2022/05/23 10:50:27;;;;;;;13.80;5.32;;;21.40;96.80;;;;;;5064398;28;20472;-55
2022/05/23 10:53:10;;;;;;;7.40;4.90;;;21.00;95.90;;;;;;5039806;28;20049;-55
2022/05/23 10:55:48;;;;;;;15.70;5.40;;;20.80;96.40;;;;;;5041919;28;20037;-53
2022/05/23 10:58:28;;;;;;;7.20;4.78;;;20.70;97.10;;;;;;5041622;28;20500;-54
2022/05/23 11:01:01;;;;;;;12.25;4.90;;;21.00;97.20;;;;;;5041285;28;20033;-52
2022/05/23 11:03:43;;;;;;;8.77;5.28;;;21.10;96.20;;;;;;5042144;28;20025;-54
2022/05/23 11:06:26;;;;;;;10.80;4.82;;;21.10;96.20;;;;;;5042212;28;20021;-55
2022/05/23 11:09:06;;;;;;;8.70;5.00;;;21.30;96.00;;;;;;5041161;28;20119;-55
2022/05/23 11:11:43;;;;;;;11.95;4.78;;;21.70;95.60;;;;;;5041401;28;20044;-54
2022/05/23 11:14:50;;;;;;;11.88;4.82;;;22.40;95.30;;;;;;5041083;28;20111;-56
2022/05/23 11:17:34;;;;;;;11.00;5.10;;;23.10;96.10;;;;;;5040506;28;20047;-53
2022/05/23 11:20:18;;;;;;;12.65;4.40;;;23.90;94.50;;;;;;5040324;28;20397;-55
2022/05/23 11:22:50;;;;;;;8.05;4.53;;;23.80;93.20;;;;;;5041359;28;20057;-50
2022/05/23 11:25:28;;;;;;;6.13;5.20;;;23.70;92.40;;;;;;5041433;28;20087;-52
2022/05/23 11:34:22;;;;;;;23.02;4.78;;;24.10;92.30;;;;;;5040276;28;20087;-52
2022/05/23 11:40:06;;;;;;;8.20;4.22;;;24.60;92.30;;;;;;5042175;28;20041;-54
2022/05/23 11:42:58;;;;;;;14.70;4.68;;;25.10;92.20;;;;;;5040937;28;20090;-55
2022/05/23 11:45:57;;;;;;;10.10;3.83;;;25.50;91.00;;;;;;5040505;28;20484;-53
2022/05/23 11:51:17;;;;;;;7.30;4.55;;;25.70;89.20;;;;;;5043058;28;20047;-55
2022/05/23 11:53:45;;;;;;;9.80;4.43;;;24.70;88.40;;;;;;5040326;28;20376;-55
2022/05/23 11:56:37;;;;;;;5.53;3.88;;;24.90;88.40;;;;;;5041334;28;20070;-51
2022/05/23 11:59:27;;;;;;;9.30;3.85;;;25.30;91.30;;;;;;5040013;28;20118;-51
2022/05/23 12:02:08;;;;;;;11.38;4.85;;;26.00;90.30;;;;;;5048704;28;20033;-54
2022/05/23 12:04:49;;;;;;;7.63;3.80;;;26.50;85.50;;;;;;5051582;28;20047;-56
2022/05/23 12:07:41;;;;;;;8.70;3.92;;;27.00;84.20;;;;;;5051480;28;20778;-55
2022/05/23 12:10:22;;;;;;;9.73;2.92;;;27.50;82.70;;;;;;5051656;28;20520;-51
2022/05/23 12:12:50;;;;;;;15.00;2.97;;;27.80;78.60;;;;;;5051301;28;20025;-52
2022/05/23 12:15:44;;;;;;;17.73;4.22;;;27.90;78.80;;;;;;5051432;28;20033;-54
2022/05/23 12:18:28;;;;;;;7.22;3.05;;;28.50;78.00;;;;;;5051430;28;20102;-55
2022/05/23 12:21:00;;;;;;;9.23;4.32;;;28.50;76.20;;;;;;5051234;28;20032;-54
2022/05/23 12:23:42;;;;;;;11.18;4.28;;;27.90;73.30;;;;;;5051215;28;20041;-56
2022/05/23 12:26:11;;;;;;;9.85;3.70;;;27.20;75.00;;;;;;5051340;28;20495;-55
2022/05/23 12:28:51;;;;;;;6.50;3.60;;;27.40;78.00;;;;;;5051401;28;20025;-53
2022/05/23 12:31:22;;;;;;;11.20;3.72;;;28.10;77.10;;;;;;5051492;28;20021;-54
2022/05/23 12:33:51;;;;;;;14.30;3.55;;;28.30;74.50;;;;;;5051117;28;20021;-56
2022/05/23 12:36:24;;;;;;;14.38;3.50;;;28.70;75.10;;;;;;5051029;28;20103;-53
2022/05/23 12:39:03;;;;;;;10.32;3.50;;;29.60;71.10;;;;;;5049991;28;20028;-53
2022/05/23 12:41:50;;;;;;;8.40;3.22;;;29.70;69.50;;;;;;5049964;28;20025;-58
2022/05/23 12:44:29;;;;;;;9.68;2.90;;;29.40;69.00;;;;;;5050226;28;20047;-54
2022/05/23 12:47:34;;;;;;;12.48;3.40;;;29.10;69.80;;;;;;5054923;28;20392;-55
2022/05/23 12:50:06;;;;;;;14.18;3.45;;;28.60;69.00;;;;;;5054159;28;20028;-54
2022/05/23 12:52:40;;;;;;;8.50;3.20;;;28.20;73.00;;;;;;5054075;28;20029;-54
2022/05/23 12:55:47;;;;;;;9.70;3.72;;;28.40;70.80;;;;;;5054154;28;20021;-56
2022/05/23 12:58:25;;;;;;;7.85;2.63;;;28.10;70.90;;;;;;5054998;28;20025;-55
2022/05/23 13:01:00;;;;;;;7.60;3.40;;;27.80;70.90;;;;;;5054842;28;20115;-53
2022/05/23 13:03:40;;;;;;;9.30;3.42;;;28.50;70.30;;;;;;5055014;28;20021;-54
2022/05/23 13:06:16;;;;;;;12.13;2.75;;;28.60;68.90;;;;;;5054909;28;20017;-54
2022/05/23 13:09:01;;;;;;;10.50;2.35;;;29.20;66.80;;;;;;5054705;28;20025;-56
2022/05/23 13:11:35;;;;;;;18.70;2.97;;;29.50;66.30;;;;;;5054724;28;20104;-54
2022/05/23 13:14:01;;;;;;;7.13;3.20;;;30.10;64.60;;;;;;5054515;28;20021;-56
2022/05/23 13:16:30;;;;;;;6.93;3.13;;;30.10;64.00;;;;;;5054676;28;20070;-56
2022/05/23 13:22:05;;;;;;;8.75;3.28;;;30.30;64.90;;;;;;5054086;28;20427;-56
2022/05/23 13:24:50;;;;;;;7.47;3.25;;;30.40;66.40;;;;;;5053535;28;20124;-56
2022/05/23 13:27:42;;;;;;;6.32;3.13;;;30.70;64.20;;;;;;5052613;28;20035;-56
2022/05/23 13:30:24;;;;;;;9.98;3.22;;;31.10;64.80;;;;;;5054045;28;20040;-56
2022/05/23 13:33:08;;;;;;;8.88;3.78;;;31.90;61.70;;;;;;5054150;28;20122;-55
2022/05/23 13:35:34;;;;;;;10.20;3.92;;;31.20;60.80;;;;;;5054282;28;20020;-55
2022/05/23 13:38:16;;;;;;;9.50;4.13;;;30.80;63.40;;;;;;5054086;28;20562;-56
2022/05/23 13:40:45;;;;;;;9.48;3.78;;;30.80;63.20;;;;;;5054140;28;20029;-55
2022/05/23 13:43:19;;;;;;;13.02;3.47;;;31.30;64.30;;;;;;5046071;28;20036;-56
2022/05/23 13:45:56;;;;;;;13.63;3.72;;;31.90;63.30;;;;;;5043349;28;20033;-56
2022/05/23 13:48:46;;;;;;;13.40;4.35;;;31.80;62.30;;;;;;5043598;28;20029;-55
2022/05/23 13:51:28;;;;;;;18.40;4.10;;;31.60;61.00;;;;;;5036215;28;20365;-56
2022/05/23 13:54:28;;;;;;;10.52;3.80;;;31.30;63.50;;;;;;5042740;28;20033;-56
2022/05/23 13:57:03;;;;;;;13.63;3.67;;;31.20;61.70;;;;;;5038385;28;20025;-55
2022/05/23 13:59:36;;;;;;;8.75;3.47;;;31.00;61.60;;;;;;5043222;28;20025;-55
2022/05/23 14:02:08;;;;;;;14.23;3.70;;;31.20;62.90;;;;;;5042508;28;20029;-57
2022/05/23 14:04:39;;;;;;;19.25;3.58;;;30.60;61.50;;;;;;5043118;28;20013;-56
2022/05/23 14:07:13;;;;;;;12.63;4.22;;;30.60;61.40;;;;;;5042363;28;20051;-55
2022/05/23 14:09:48;;;;;;;13.18;4.20;;;30.50;60.60;;;;;;5042908;28;20041;-53
2022/05/23 14:12:26;;;;;;;7.22;3.17;;;30.80;60.00;;;;;;5042525;28;20032;-56
2022/05/23 14:14:54;;;;;;;10.90;2.60;;;31.60;61.40;;;;;;5042727;28;20035;-57